New Orleans, Louisiana
Traffic Map
Current Weather Conditions
New Orleans, Louisiana
Overcast Haze
Overcast
62°
Feels Like: 62°
Wind Chill: 62° Ceiling: 900
Heat Index: 62° Visibility: 4mi
Dew Point: 62° Wind: 7mph
Humidity: 100% Direction: 70° (ENE)
Pressure: 29.9in Gusts: 0mph
Raw Report DataKNEW 041302Z 07006KT 4SM BR SCT004 OVC009 17/17 A2990 RMK AO2 T01670167
Traffic Incident Summary
Active as of:
Severity:
Category:
InformationThere was an issue retrieving the traffic information for this location. Please try a different location or try again shortly.
Advertisements
Track Severe Weather on mobile